DLH1HE EDDF-LIPZ
Flight info
| Callsign | DLH1HE |
|---|---|
| Flight time | 1h 5m |
| Altitude | 29000 |
| Route | ANEKI2L ANEKI Y163 PABLA Z721 UTABA M738 ADOSA L612 ALBET |
| Aircraft | A319/M-SDE2E3FGIJ1LORWXYZ/HB1 |
Departure
| Time | 2026-05-04 06:50 |
|---|---|
| Airport | Frankfurt Main Airport (EDDF) |
Arrival
| Time | 2026-05-04 07:56 |
|---|---|
| Airport | Venice Marco Polo Airport (LIPZ) |
| Time | Latitude | Longitude | Altitude | Speed | Heading |
|---|---|---|---|---|---|
| 2026-05-04 06:25 | 50.04903 | 8.59109 | 365 ft | 0 kts | 339° |
| 2026-05-04 06:41 | 50.04896 | 8.59113 | 367 ft | 4 kts | 339° |
| 2026-05-04 06:42 | 50.04870 | 8.59127 | 369 ft | 4 kts | 339° |
| 2026-05-04 06:42 | 50.04845 | 8.59142 | 367 ft | 4 kts | 339° |
| 2026-05-04 06:42 | 50.04828 | 8.59152 | 368 ft | 0 kts | 339° |
| 2026-05-04 06:46 | 50.04831 | 8.59141 | 369 ft | 1 kts | 277° |
| 2026-05-04 06:46 | 50.04825 | 8.59130 | 368 ft | 2 kts | 232° |
| 2026-05-04 06:46 | 50.04808 | 8.59095 | 368 ft | 6 kts | 238° |
| 2026-05-04 06:46 | 50.04786 | 8.59026 | 372 ft | 8 kts | 247° |
| 2026-05-04 06:48 | 50.04440 | 8.58395 | 373 ft | 33 kts | 249° |
| 2026-05-04 06:48 | 50.04253 | 8.57613 | 365 ft | 117 kts | 250° |
| 2026-05-04 06:49 | 50.03893 | 8.56124 | 471 ft | 165 kts | 248° |
| 2026-05-04 06:50 | 49.97209 | 8.50768 | 6186 ft | 233 kts | 134° |
| 2026-05-04 06:51 | 49.95998 | 8.52427 | 7073 ft | 236 kts | 152° |
| 2026-05-04 06:51 | 49.94372 | 8.53136 | 7529 ft | 256 kts | 179° |
| 2026-05-04 06:51 | 49.92538 | 8.53539 | 8198 ft | 276 kts | 166° |
| 2026-05-04 06:51 | 49.90705 | 8.54543 | 9200 ft | 282 kts | 163° |
| 2026-05-04 06:52 | 49.88849 | 8.55591 | 10198 ft | 288 kts | 163° |
| 2026-05-04 06:52 | 49.86888 | 8.56705 | 10741 ft | 308 kts | 163° |
| 2026-05-04 06:52 | 49.84854 | 8.57864 | 11602 ft | 315 kts | 162° |
| 2026-05-04 06:52 | 49.82781 | 8.59048 | 12547 ft | 319 kts | 162° |
| 2026-05-04 06:53 | 49.80684 | 8.60250 | 13474 ft | 323 kts | 162° |
| 2026-05-04 06:53 | 49.78561 | 8.61468 | 14340 ft | 327 kts | 162° |
| 2026-05-04 06:53 | 49.76421 | 8.62699 | 15153 ft | 330 kts | 162° |
| 2026-05-04 06:53 | 49.74256 | 8.63942 | 15981 ft | 333 kts | 162° |
| 2026-05-04 06:54 | 49.72073 | 8.65189 | 16796 ft | 336 kts | 162° |
| 2026-05-04 06:54 | 49.69869 | 8.66441 | 17607 ft | 339 kts | 162° |
| 2026-05-04 06:54 | 49.67646 | 8.67704 | 18407 ft | 342 kts | 163° |
| 2026-05-04 06:54 | 49.65429 | 8.68960 | 19077 ft | 346 kts | 163° |
| 2026-05-04 06:55 | 49.63159 | 8.70247 | 19750 ft | 350 kts | 163° |
| 2026-05-04 06:55 | 49.60859 | 8.71553 | 20411 ft | 354 kts | 163° |
| 2026-05-04 06:55 | 49.58533 | 8.72876 | 21066 ft | 359 kts | 163° |
| 2026-05-04 06:55 | 49.56178 | 8.74212 | 21719 ft | 363 kts | 163° |
| 2026-05-04 06:56 | 49.53793 | 8.75563 | 22363 ft | 367 kts | 164° |
| 2026-05-04 06:57 | 49.36396 | 8.85365 | 26407 ft | 391 kts | 165° |
| 2026-05-04 06:58 | 49.33822 | 8.86775 | 26941 ft | 394 kts | 165° |
| 2026-05-04 06:58 | 49.31231 | 8.88174 | 27465 ft | 397 kts | 165° |
| 2026-05-04 06:58 | 49.28617 | 8.89581 | 27980 ft | 399 kts | 165° |
| 2026-05-04 06:58 | 49.25985 | 8.90997 | 28481 ft | 403 kts | 165° |
| 2026-05-04 06:59 | 49.23334 | 8.92421 | 28913 ft | 406 kts | 165° |
| 2026-05-04 06:59 | 49.20674 | 8.93849 | 29011 ft | 401 kts | 165° |
| 2026-05-04 06:59 | 49.18099 | 8.95243 | 29019 ft | 384 kts | 165° |
| 2026-05-04 06:59 | 49.15632 | 8.96585 | 29018 ft | 369 kts | 165° |
| 2026-05-04 07:01 | 48.99602 | 9.05178 | 29024 ft | 346 kts | 166° |
| 2026-05-04 07:01 | 48.97331 | 9.06391 | 29021 ft | 346 kts | 166° |
| 2026-05-04 07:02 | 48.92758 | 9.08837 | 29024 ft | 346 kts | 166° |
| 2026-05-04 07:02 | 48.88255 | 9.11246 | 29021 ft | 346 kts | 166° |
| 2026-05-04 07:03 | 48.83717 | 9.13668 | 29012 ft | 345 kts | 166° |
| 2026-05-04 07:03 | 48.79183 | 9.16067 | 29018 ft | 345 kts | 166° |
| 2026-05-04 07:04 | 48.74649 | 9.18462 | 29021 ft | 345 kts | 166° |
| 2026-05-04 07:04 | 48.70123 | 9.20857 | 29019 ft | 345 kts | 166° |
| 2026-05-04 07:05 | 48.65598 | 9.23237 | 29014 ft | 344 kts | 166° |
| 2026-05-04 07:05 | 48.61074 | 9.25622 | 29019 ft | 344 kts | 166° |
| 2026-05-04 07:06 | 48.54289 | 9.29208 | 29015 ft | 344 kts | 166° |
| 2026-05-04 07:07 | 48.49764 | 9.31581 | 29016 ft | 344 kts | 166° |
| 2026-05-04 07:09 | 48.31710 | 9.40973 | 29020 ft | 344 kts | 165° |
| 2026-05-04 07:09 | 48.27189 | 9.43333 | 29019 ft | 344 kts | 165° |
| 2026-05-04 07:10 | 48.22673 | 9.45690 | 29026 ft | 344 kts | 165° |
| 2026-05-04 07:12 | 48.04573 | 9.55009 | 29025 ft | 344 kts | 166° |
| 2026-05-04 07:12 | 48.00248 | 9.58160 | 29023 ft | 352 kts | 148° |
| 2026-05-04 07:13 | 47.96290 | 9.62492 | 29023 ft | 353 kts | 148° |
| 2026-05-04 07:13 | 47.92314 | 9.66798 | 29021 ft | 353 kts | 149° |
| 2026-05-04 07:14 | 47.82565 | 9.77271 | 29024 ft | 354 kts | 149° |
| 2026-05-04 07:15 | 47.78594 | 9.81540 | 29022 ft | 355 kts | 149° |
| 2026-05-04 07:15 | 47.74589 | 9.85829 | 29020 ft | 355 kts | 149° |
| 2026-05-04 07:16 | 47.70578 | 9.90121 | 29022 ft | 355 kts | 149° |
| 2026-05-04 07:16 | 47.66560 | 9.94405 | 29022 ft | 356 kts | 149° |
| 2026-05-04 07:17 | 47.62536 | 9.98687 | 29021 ft | 356 kts | 149° |
| 2026-05-04 07:17 | 47.58507 | 10.02972 | 29021 ft | 357 kts | 148° |
| 2026-05-04 07:18 | 47.54467 | 10.07261 | 29025 ft | 357 kts | 149° |
| 2026-05-04 07:18 | 47.50431 | 10.11533 | 29028 ft | 357 kts | 149° |
| 2026-05-04 07:19 | 47.46381 | 10.15810 | 29023 ft | 358 kts | 149° |
| 2026-05-04 07:19 | 47.42333 | 10.19986 | 29028 ft | 357 kts | 151° |
| 2026-05-04 07:20 | 47.38124 | 10.23841 | 29027 ft | 356 kts | 153° |
| 2026-05-04 07:20 | 47.33867 | 10.27607 | 29032 ft | 357 kts | 153° |
| 2026-05-04 07:22 | 47.16912 | 10.42850 | 29061 ft | 358 kts | 152° |
| 2026-05-04 07:23 | 47.12662 | 10.46660 | 29073 ft | 358 kts | 152° |
| 2026-05-04 07:23 | 47.08422 | 10.50450 | 29075 ft | 357 kts | 152° |
| 2026-05-04 07:24 | 47.04032 | 10.53654 | 29079 ft | 352 kts | 167° |
| 2026-05-04 07:24 | 46.99349 | 10.55767 | 29089 ft | 352 kts | 166° |
| 2026-05-04 07:26 | 46.80592 | 10.64213 | 29121 ft | 353 kts | 166° |
| 2026-05-04 07:27 | 46.75898 | 10.66314 | 29127 ft | 353 kts | 166° |
| 2026-05-04 07:27 | 46.71200 | 10.68359 | 29126 ft | 352 kts | 168° |
| 2026-05-04 07:28 | 46.66446 | 10.69980 | 29131 ft | 351 kts | 171° |
| 2026-05-04 07:28 | 46.61666 | 10.71448 | 29131 ft | 351 kts | 171° |
| 2026-05-04 07:29 | 46.56887 | 10.72961 | 29138 ft | 352 kts | 170° |
| 2026-05-04 07:29 | 46.52144 | 10.74503 | 29149 ft | 352 kts | 170° |
| 2026-05-04 07:30 | 46.47365 | 10.76070 | 29165 ft | 352 kts | 170° |
| 2026-05-04 07:30 | 46.42589 | 10.77626 | 29168 ft | 352 kts | 170° |
| 2026-05-04 07:31 | 46.37817 | 10.79164 | 29188 ft | 351 kts | 170° |
| 2026-05-04 07:33 | 46.20879 | 10.84630 | 27983 ft | 363 kts | 169° |
| 2026-05-04 07:33 | 46.18425 | 10.85422 | 27527 ft | 361 kts | 169° |
| 2026-05-04 07:33 | 46.15974 | 10.86212 | 27003 ft | 360 kts | 169° |
| 2026-05-04 07:33 | 46.13541 | 10.86997 | 26550 ft | 358 kts | 169° |
| 2026-05-04 07:34 | 46.11935 | 10.87515 | 26264 ft | 356 kts | 169° |
| 2026-05-04 07:34 | 46.09528 | 10.88291 | 25803 ft | 353 kts | 169° |
| 2026-05-04 07:34 | 46.07132 | 10.89061 | 25342 ft | 351 kts | 169° |
| 2026-05-04 07:34 | 46.04751 | 10.89824 | 24892 ft | 350 kts | 170° |
| 2026-05-04 07:35 | 46.02378 | 10.90582 | 24426 ft | 349 kts | 169° |
| 2026-05-04 07:35 | 46.00007 | 10.91340 | 23967 ft | 349 kts | 169° |
| 2026-05-04 07:35 | 45.97642 | 10.92099 | 23466 ft | 348 kts | 169° |
| 2026-05-04 07:35 | 45.95285 | 10.92853 | 22993 ft | 346 kts | 169° |
| 2026-05-04 07:36 | 45.92938 | 10.93605 | 22544 ft | 344 kts | 169° |
| 2026-05-04 07:36 | 45.90607 | 10.94346 | 22109 ft | 342 kts | 169° |
| 2026-05-04 07:38 | 45.76190 | 11.04609 | 18818 ft | 343 kts | 137° |
| 2026-05-04 07:38 | 45.74482 | 11.06996 | 18342 ft | 343 kts | 137° |
| 2026-05-04 07:38 | 45.72771 | 11.09380 | 17803 ft | 343 kts | 137° |
| 2026-05-04 07:38 | 45.71060 | 11.11760 | 17264 ft | 343 kts | 137° |
| 2026-05-04 07:39 | 45.69346 | 11.14140 | 16805 ft | 342 kts | 137° |
| 2026-05-04 07:39 | 45.67660 | 11.16482 | 16433 ft | 336 kts | 137° |
| 2026-05-04 07:39 | 45.65987 | 11.18802 | 15921 ft | 335 kts | 138° |
| 2026-05-04 07:39 | 45.64323 | 11.21105 | 15495 ft | 331 kts | 138° |
| 2026-05-04 07:40 | 45.62679 | 11.23384 | 15090 ft | 327 kts | 138° |
| 2026-05-04 07:40 | 45.61076 | 11.25604 | 14714 ft | 323 kts | 139° |
| 2026-05-04 07:40 | 45.59454 | 11.27845 | 14325 ft | 319 kts | 139° |
| 2026-05-04 07:40 | 45.57883 | 11.30008 | 13954 ft | 317 kts | 139° |
| 2026-05-04 07:41 | 45.56306 | 11.32180 | 13545 ft | 315 kts | 139° |
| 2026-05-04 07:41 | 45.54738 | 11.34342 | 13167 ft | 312 kts | 139° |
| 2026-05-04 07:41 | 45.53192 | 11.36476 | 12919 ft | 304 kts | 139° |
| 2026-05-04 07:41 | 45.51680 | 11.38564 | 12512 ft | 301 kts | 139° |
| 2026-05-04 07:42 | 45.50183 | 11.40622 | 12102 ft | 297 kts | 139° |
| 2026-05-04 07:42 | 45.48698 | 11.42658 | 11697 ft | 295 kts | 138° |
| 2026-05-04 07:42 | 45.47220 | 11.44681 | 11309 ft | 295 kts | 138° |
| 2026-05-04 07:42 | 45.45739 | 11.46705 | 10920 ft | 294 kts | 138° |
| 2026-05-04 07:43 | 45.44264 | 11.48720 | 10542 ft | 294 kts | 138° |
| 2026-05-04 07:43 | 45.42789 | 11.50739 | 10153 ft | 294 kts | 137° |
| 2026-05-04 07:43 | 45.41366 | 11.52816 | 9796 ft | 292 kts | 135° |
| 2026-05-04 07:43 | 45.40009 | 11.54945 | 9476 ft | 289 kts | 133° |
| 2026-05-04 07:44 | 45.38682 | 11.57085 | 9153 ft | 287 kts | 133° |
| 2026-05-04 07:44 | 45.37368 | 11.59212 | 8827 ft | 285 kts | 133° |
| 2026-05-04 07:44 | 45.36060 | 11.61321 | 8515 ft | 284 kts | 132° |
| 2026-05-04 07:44 | 45.35004 | 11.63684 | 8196 ft | 284 kts | 115° |
| 2026-05-04 07:45 | 45.34478 | 11.66382 | 7895 ft | 284 kts | 98° |
| 2026-05-04 07:45 | 45.34484 | 11.69183 | 7571 ft | 284 kts | 86° |
| 2026-05-04 07:45 | 45.34620 | 11.71980 | 7252 ft | 282 kts | 87° |
| 2026-05-04 07:45 | 45.34747 | 11.74752 | 6923 ft | 281 kts | 87° |
| 2026-05-04 07:46 | 45.34871 | 11.77519 | 6552 ft | 277 kts | 87° |
| 2026-05-04 07:46 | 45.34988 | 11.80193 | 6268 ft | 266 kts | 89° |
| 2026-05-04 07:46 | 45.34809 | 11.82742 | 5963 ft | 255 kts | 105° |
| 2026-05-04 07:46 | 45.34178 | 11.85029 | 5684 ft | 250 kts | 120° |
| 2026-05-04 07:47 | 45.33140 | 11.87034 | 5380 ft | 248 kts | 133° |
| 2026-05-04 07:47 | 45.32006 | 11.88829 | 5239 ft | 248 kts | 133° |
| 2026-05-04 07:47 | 45.30876 | 11.90623 | 5118 ft | 238 kts | 133° |
| 2026-05-04 07:49 | 45.28324 | 12.05573 | 4071 ft | 226 kts | 74° |
| 2026-05-04 07:49 | 45.29004 | 12.07527 | 4004 ft | 218 kts | 52° |
| 2026-05-04 07:49 | 45.30068 | 12.09050 | 4008 ft | 218 kts | 41° |
| 2026-05-04 07:50 | 45.31188 | 12.10469 | 4005 ft | 211 kts | 41° |
| 2026-05-04 07:50 | 45.32244 | 12.11812 | 4008 ft | 200 kts | 41° |
| 2026-05-04 07:50 | 45.33271 | 12.13120 | 4009 ft | 196 kts | 41° |
| 2026-05-04 07:50 | 45.34259 | 12.14379 | 3971 ft | 189 kts | 41° |
| 2026-05-04 07:51 | 45.35237 | 12.15627 | 3711 ft | 187 kts | 41° |
| 2026-05-04 07:51 | 45.36201 | 12.16856 | 3476 ft | 185 kts | 41° |
| 2026-05-04 07:51 | 45.37161 | 12.18083 | 3226 ft | 185 kts | 41° |
| 2026-05-04 07:51 | 45.38116 | 12.19301 | 2985 ft | 184 kts | 41° |
| 2026-05-04 07:52 | 45.39060 | 12.20507 | 2758 ft | 181 kts | 42° |
| 2026-05-04 07:52 | 45.39979 | 12.21681 | 2509 ft | 175 kts | 42° |
| 2026-05-04 07:52 | 45.40873 | 12.22814 | 2287 ft | 170 kts | 42° |
| 2026-05-04 07:52 | 45.41750 | 12.23926 | 2084 ft | 168 kts | 42° |
| 2026-05-04 07:53 | 45.42602 | 12.25030 | 1876 ft | 163 kts | 42° |
| 2026-05-04 07:54 | 45.47696 | 12.31573 | 502 ft | 123 kts | 42° |
| 2026-05-04 07:55 | 45.48328 | 12.32380 | 323 ft | 122 kts | 42° |
| 2026-05-04 07:55 | 45.48946 | 12.33173 | 164 ft | 121 kts | 43° |
| 2026-05-04 07:55 | 45.49564 | 12.33973 | 25 ft | 118 kts | 42° |
| 2026-05-04 07:55 | 45.50055 | 12.34601 | 15 ft | 58 kts | 42° |
| 2026-05-04 07:56 | 45.50265 | 12.34868 | 15 ft | 26 kts | 40° |
| 2026-05-04 07:56 | 45.50409 | 12.35033 | 15 ft | 24 kts | 22° |
| 2026-05-04 07:56 | 45.50518 | 12.35066 | 14 ft | 16 kts | 11° |
| 2026-05-04 07:56 | 45.50597 | 12.35055 | 15 ft | 10 kts | 329° |
| 2026-05-04 07:57 | 45.50613 | 12.34966 | 15 ft | 10 kts | 270° |
| 2026-05-04 07:57 | 45.50611 | 12.34861 | 15 ft | 11 kts | 268° |
| 2026-05-04 07:57 | 45.50609 | 12.34784 | 16 ft | 7 kts | 266° |
| 2026-05-04 07:57 | 45.50584 | 12.34724 | 16 ft | 8 kts | 219° |
| 2026-05-04 07:58 | 45.50533 | 12.34661 | 16 ft | 10 kts | 222° |
| 2026-05-04 07:58 | 45.50477 | 12.34588 | 16 ft | 12 kts | 221° |
| 2026-05-04 07:58 | 45.50412 | 12.34506 | 16 ft | 13 kts | 223° |
| 2026-05-04 07:58 | 45.50343 | 12.34414 | 16 ft | 14 kts | 219° |
| 2026-05-04 07:59 | 45.50343 | 12.34349 | 17 ft | 9 kts | 359° |
| 2026-05-04 07:59 | 45.50410 | 12.34346 | 16 ft | 11 kts | 356° |
| 2026-05-04 07:59 | 45.50491 | 12.34342 | 16 ft | 13 kts | 358° |
| 2026-05-04 07:59 | 45.50570 | 12.34337 | 16 ft | 12 kts | 358° |
| 2026-05-04 08:00 | 45.50617 | 12.34271 | 16 ft | 7 kts | 266° |
| 2026-05-04 08:00 | 45.50616 | 12.34213 | 16 ft | 0 kts | 267° |